createdAt,value
2022-12-12T00:00:28.411Z,100702.78
2022-12-12T00:02:54.871Z,100703.97
2022-12-12T00:05:21.305Z,100703.00
2022-12-12T00:07:47.655Z,100703.69
2022-12-12T00:10:14.394Z,100708.84
2022-12-12T00:12:41.394Z,100706.38
2022-12-12T00:15:08.583Z,100704.41
2022-12-12T00:17:35.067Z,100709.41
2022-12-12T00:20:01.577Z,100711.97
2022-12-12T00:22:27.912Z,100709.31
2022-12-12T00:24:54.243Z,100711.84
2022-12-12T00:27:20.610Z,100717.19
2022-12-12T00:29:54.338Z,100724.97
2022-12-12T00:32:20.915Z,100717.91
2022-12-12T00:34:47.364Z,100719.69
2022-12-12T00:37:13.712Z,100719.50
2022-12-12T00:39:42.135Z,100718.66
2022-12-12T00:42:08.827Z,100722.13
2022-12-12T00:44:35.218Z,100727.41
2022-12-12T00:47:02.733Z,100730.13
2022-12-12T00:49:29.273Z,100726.63
2022-12-12T00:51:55.593Z,100725.69
2022-12-12T00:54:21.950Z,100723.06
2022-12-12T00:56:48.291Z,100722.25
2022-12-12T00:59:14.952Z,100728.38
2022-12-12T01:01:41.579Z,100731.91
2022-12-12T01:04:07.945Z,100733.56
2022-12-12T01:06:34.284Z,100737.09
2022-12-12T01:09:00.683Z,100746.75
2022-12-12T01:11:27.020Z,100742.31
2022-12-12T01:13:54.648Z,100739.72
2022-12-12T01:16:22.503Z,100744.09
2022-12-12T01:18:49.148Z,100748.44
2022-12-12T01:21:17.687Z,100746.63
2022-12-12T01:23:44.750Z,100751.06
2022-12-12T01:26:17.983Z,100754.50
2022-12-12T01:28:45.568Z,100752.81
2022-12-12T01:31:13.031Z,100752.13
2022-12-12T01:33:39.666Z,100743.78
2022-12-12T01:36:06.831Z,100753.25
2022-12-12T01:38:33.261Z,100760.19
2022-12-12T01:40:59.585Z,100754.94
2022-12-12T01:43:26.032Z,100761.03
2022-12-12T01:46:31.369Z,100761.84
2022-12-12T01:49:06.408Z,100765.44
2022-12-12T01:51:33.851Z,100766.16
2022-12-12T01:54:07.255Z,100761.81
2022-12-12T01:56:35.159Z,100767.94
2022-12-12T01:59:05.068Z,100763.56
2022-12-12T02:01:31.943Z,100761.84
2022-12-12T02:04:00.458Z,100763.63
2022-12-12T02:06:28.685Z,100762.72
2022-12-12T02:08:58.079Z,100760.94
2022-12-12T02:11:27.806Z,100765.25
2022-12-12T02:13:54.394Z,100759.09
2022-12-12T02:16:31.932Z,100765.19
2022-12-12T02:19:39.824Z,100759.09
2022-12-12T02:22:19.385Z,100758.22
2022-12-12T02:25:15.797Z,100757.31
2022-12-12T02:28:08.189Z,100761.03
2022-12-12T02:30:45.028Z,100757.81
2022-12-12T02:33:23.781Z,100759.59
2022-12-12T02:36:03.466Z,100765.59
2022-12-12T02:38:49.964Z,100760.34
2022-12-12T02:41:29.083Z,100762.94
2022-12-12T02:43:55.372Z,100762.00
2022-12-12T02:46:32.810Z,100761.06
2022-12-12T02:49:09.804Z,100765.47
2022-12-12T02:51:38.200Z,100765.44
2022-12-12T02:54:06.078Z,100767.13
2022-12-12T02:56:43.180Z,100768.75
2022-12-12T02:59:12.470Z,100764.38
2022-12-12T03:02:17.140Z,100767.09
2022-12-12T03:05:14.545Z,100764.50
2022-12-12T03:08:04.894Z,100758.13
2022-12-12T03:10:37.145Z,100760.03
2022-12-12T03:13:03.495Z,100763.66
2022-12-12T03:15:54.363Z,100760.19
2022-12-12T03:18:28.221Z,100767.25
2022-12-12T03:21:03.491Z,100763.88
2022-12-12T03:23:39.448Z,100767.22
2022-12-12T03:26:16.144Z,100759.44
2022-12-12T03:28:52.699Z,100762.47
2022-12-12T03:31:23.542Z,100765.00
2022-12-12T03:33:54.876Z,100761.34
2022-12-12T03:36:33.506Z,100760.41
2022-12-12T03:39:06.589Z,100765.53
2022-12-12T03:41:40.813Z,100760.34
2022-12-12T03:44:13.670Z,100761.16
2022-12-12T03:46:53.620Z,100756.72
2022-12-12T03:49:39.769Z,100763.69
2022-12-12T03:52:21.965Z,100758.44
2022-12-12T03:55:08.376Z,100763.66
2022-12-12T03:57:41.264Z,100769.78
2022-12-12T04:00:10.799Z,100769.97
2022-12-12T04:02:47.091Z,100774.44
2022-12-12T04:05:20.188Z,100773.56
2022-12-12T04:07:53.424Z,100771.81
2022-12-12T04:10:42.312Z,100767.53
2022-12-12T04:13:26.175Z,100767.53
2022-12-12T04:15:58.036Z,100766.66
2022-12-12T04:18:37.936Z,100760.53
2022-12-12T04:21:36.526Z,100761.38
2022-12-12T04:24:22.472Z,100767.53
2022-12-12T04:27:07.158Z,100771.13
2022-12-12T04:29:53.253Z,100779.94
2022-12-12T04:32:26.826Z,100774.53
2022-12-12T04:35:14.700Z,100794.78
2022-12-12T04:37:43.652Z,100779.09
2022-12-12T04:40:14.564Z,100788.94
2022-12-12T04:42:46.362Z,100791.63
2022-12-12T04:45:20.764Z,100790.81
2022-12-12T04:47:50.310Z,100792.59
2022-12-12T04:50:18.962Z,100789.97
2022-12-12T04:52:48.174Z,100794.38
2022-12-12T04:55:21.890Z,100792.75
2022-12-12T04:57:50.725Z,100789.25
2022-12-12T05:00:18.024Z,100785.69
2022-12-12T05:02:58.140Z,100791.78
2022-12-12T05:05:29.651Z,100796.19
2022-12-12T05:08:19.738Z,100799.66
2022-12-12T05:10:50.579Z,100802.28
2022-12-12T05:13:19.713Z,100800.53
2022-12-12T05:15:48.263Z,100797.03
2022-12-12T05:18:14.594Z,100809.34
2022-12-12T05:20:41.196Z,100814.63
2022-12-12T05:23:07.739Z,100807.56
2022-12-12T05:25:34.047Z,100817.16
2022-12-12T05:28:05.710Z,100809.25
2022-12-12T05:30:32.417Z,100813.66
2022-12-12T05:32:59.048Z,100809.22
2022-12-12T05:35:26.353Z,100811.69
2022-12-12T05:37:52.765Z,100813.53
2022-12-12T05:40:20.830Z,100812.69
2022-12-12T05:42:48.040Z,100815.25
2022-12-12T05:45:15.273Z,100821.31
2022-12-12T05:47:41.752Z,100822.06
2022-12-12T05:50:08.254Z,100828.50
2022-12-12T05:52:34.600Z,100825.00
2022-12-12T05:55:00.953Z,100827.56
2022-12-12T05:57:27.377Z,100824.94
2022-12-12T05:59:53.748Z,100833.66
2022-12-12T06:02:20.252Z,100822.16
2022-12-12T06:04:47.673Z,100826.50
2022-12-12T06:07:13.973Z,100830.94
2022-12-12T06:09:40.321Z,100834.44
2022-12-12T06:12:07.717Z,100837.06
2022-12-12T06:14:34.064Z,100834.38
2022-12-12T06:17:00.476Z,100843.16
2022-12-12T06:19:26.795Z,100842.31
2022-12-12T06:21:53.102Z,100838.06
2022-12-12T06:24:19.502Z,100839.75
2022-12-12T06:26:46.122Z,100841.53
2022-12-12T06:29:14.644Z,100839.69
2022-12-12T06:31:41.193Z,100836.16
2022-12-12T06:34:07.580Z,100836.94
2022-12-12T06:36:33.997Z,100844.81
2022-12-12T06:39:01.656Z,100851.88
2022-12-12T06:41:29.870Z,100853.63
2022-12-12T06:43:56.432Z,100852.81
2022-12-12T06:46:25.806Z,100850.09
2022-12-12T06:48:52.864Z,100857.22
2022-12-12T06:51:22.816Z,100861.44
2022-12-12T06:53:49.557Z,100856.28
2022-12-12T06:56:18.325Z,100865.03
2022-12-12T06:58:45.368Z,100862.66
2022-12-12T07:01:13.744Z,100869.81
2022-12-12T07:03:40.495Z,100861.91
2022-12-12T07:06:07.596Z,100867.16
2022-12-12T07:08:35.208Z,100864.59
2022-12-12T07:11:15.963Z,100860.31
2022-12-12T07:13:42.504Z,100856.03
2022-12-12T07:16:09.691Z,100861.38
2022-12-12T07:18:36.348Z,100871.88
2022-12-12T07:21:07.423Z,100869.25
2022-12-12T07:23:34.558Z,100870.97
2022-12-12T07:26:04.939Z,100878.88
2022-12-12T07:28:31.437Z,100882.31
2022-12-12T07:30:58.564Z,100863.03
2022-12-12T07:33:29.766Z,100879.72
2022-12-12T07:36:02.452Z,100880.69
2022-12-12T07:38:28.839Z,100886.13
2022-12-12T07:40:55.428Z,100889.50
2022-12-12T07:43:26.466Z,100897.28
2022-12-12T07:45:53.117Z,100895.59
2022-12-12T07:48:19.429Z,100901.78
2022-12-12T07:50:45.759Z,100912.25
2022-12-12T07:53:12.065Z,100905.16
2022-12-12T07:55:40.152Z,100899.88
2022-12-12T07:58:06.581Z,100899.06
2022-12-12T08:00:32.886Z,100907.78
2022-12-12T08:02:59.222Z,100901.56
2022-12-12T08:05:25.540Z,100905.91
2022-12-12T08:07:51.841Z,100905.78
2022-12-12T08:10:18.214Z,100906.88
2022-12-12T08:12:44.520Z,100910.44
2022-12-12T08:15:16.660Z,100908.63
2022-12-12T08:17:43.652Z,100903.38
2022-12-12T08:20:10.513Z,100901.38
2022-12-12T08:22:37.536Z,100904.72
2022-12-12T08:25:04.248Z,100903.84
2022-12-12T08:27:30.547Z,100917.88
2022-12-12T08:29:57.900Z,100911.69
2022-12-12T08:32:24.228Z,100921.19
2022-12-12T08:34:50.595Z,100907.09
2022-12-12T08:37:16.892Z,100909.66
2022-12-12T08:39:44.335Z,100904.22
2022-12-12T08:42:10.661Z,100909.53
2022-12-12T08:44:36.987Z,100914.84
2022-12-12T08:47:03.383Z,100911.38
2022-12-12T08:49:29.750Z,100911.47
2022-12-12T08:51:56.298Z,100914.88
2022-12-12T08:54:23.668Z,100915.66
2022-12-12T08:56:49.957Z,100917.44
2022-12-12T08:59:16.397Z,100915.66
2022-12-12T09:01:42.800Z,100920.75
2022-12-12T09:04:09.293Z,100925.91
2022-12-12T09:06:35.822Z,100929.56
2022-12-12T09:09:02.208Z,100934.72
2022-12-12T09:11:28.786Z,100933.81
2022-12-12T09:13:55.096Z,100933.66
2022-12-12T09:16:23.171Z,100932.06
2022-12-12T09:18:49.709Z,100932.94
2022-12-12T09:21:17.157Z,100932.75
2022-12-12T09:23:43.788Z,100938.91
2022-12-12T09:26:11.226Z,100937.44
2022-12-12T09:28:38.544Z,100939.59
2022-12-12T09:31:09.678Z,100937.63
2022-12-12T09:33:36.687Z,100941.00
2022-12-12T09:36:06.423Z,100941.69
2022-12-12T09:38:33.235Z,100943.13
2022-12-12T09:41:02.595Z,100941.22
2022-12-12T09:43:33.225Z,100942.84
2022-12-12T09:46:02.576Z,100941.75
2022-12-12T09:48:46.342Z,100938.88
2022-12-12T09:51:13.780Z,100934.13
2022-12-12T09:53:43.825Z,100937.59
2022-12-12T09:56:27.933Z,100933.22
2022-12-12T09:59:14.819Z,100941.34
2022-12-12T10:01:59.885Z,100940.50
2022-12-12T10:04:47.801Z,100940.75
2022-12-12T10:07:30.925Z,100942.09
2022-12-12T10:10:18.304Z,100938.25
2022-12-12T10:12:46.475Z,100939.94
2022-12-12T10:15:25.192Z,100939.88
2022-12-12T10:17:52.847Z,100935.34
2022-12-12T10:20:25.773Z,100942.28
2022-12-12T10:22:56.118Z,100935.41
2022-12-12T10:25:39.724Z,100939.44
2022-12-12T10:28:12.732Z,100938.47
2022-12-12T10:31:16.384Z,100933.78
2022-12-12T10:34:01.954Z,100935.91
2022-12-12T10:36:46.795Z,100936.47
2022-12-12T10:39:19.100Z,100932.66
2022-12-12T10:41:48.679Z,100925.19
2022-12-12T10:44:33.879Z,100930.38
2022-12-12T10:47:05.176Z,100923.66
2022-12-12T10:49:33.441Z,100922.53
2022-12-12T10:52:04.426Z,100923.13
2022-12-12T10:54:44.316Z,100929.06
2022-12-12T10:57:19.875Z,100915.75
2022-12-12T10:59:49.560Z,100915.47
2022-12-12T11:02:26.650Z,100916.19
2022-12-12T11:05:02.611Z,100917.28
2022-12-12T11:07:29.704Z,100909.34
2022-12-12T11:10:01.862Z,100915.31
2022-12-12T11:12:33.823Z,100908.19
2022-12-12T11:15:06.340Z,100904.81
2022-12-12T11:17:34.578Z,100909.81
2022-12-12T11:20:06.224Z,100909.31
2022-12-12T11:22:33.584Z,100908.16
2022-12-12T11:25:00.544Z,100905.88
2022-12-12T11:27:34.364Z,100902.38
2022-12-12T11:30:07.943Z,100904.16
2022-12-12T11:32:45.774Z,100904.91
2022-12-12T11:35:39.981Z,100898.25
2022-12-12T11:38:20.908Z,100898.56
2022-12-12T11:40:58.280Z,100903.72
2022-12-12T11:43:30.993Z,100893.81
2022-12-12T11:45:58.774Z,100898.91
2022-12-12T11:48:52.126Z,100892.75
2022-12-12T11:51:35.387Z,100892.34
2022-12-12T11:54:23.126Z,100893.06
2022-12-12T11:57:01.994Z,100891.72
2022-12-12T11:59:54.667Z,100888.91
2022-12-12T12:02:28.024Z,100890.38
2022-12-12T12:05:16.944Z,100878.72
2022-12-12T12:08:07.588Z,100877.19
2022-12-12T12:10:42.458Z,100880.69
2022-12-12T12:13:43.211Z,100881.53
2022-12-12T12:16:46.894Z,100881.19
2022-12-12T12:19:43.262Z,100878.84
2022-12-12T12:22:28.251Z,100885.06
2022-12-12T12:25:38.143Z,100874.50
2022-12-12T12:28:07.455Z,100881.41
2022-12-12T12:30:52.588Z,100871.78
2022-12-12T12:33:40.264Z,100873.59
2022-12-12T12:36:47.443Z,100871.00
2022-12-12T12:39:26.281Z,100870.56
2022-12-12T12:42:31.024Z,100865.53
2022-12-12T12:45:07.394Z,100868.00
2022-12-12T12:47:50.055Z,100860.78
2022-12-12T12:50:19.303Z,100864.41
2022-12-12T12:52:54.690Z,100864.91
2022-12-12T12:55:31.915Z,100863.06
2022-12-12T12:58:01.046Z,100862.78
2022-12-12T13:00:30.194Z,100867.09
2022-12-12T13:03:08.356Z,100861.13
2022-12-12T13:05:41.328Z,100868.50
2022-12-12T13:08:40.206Z,100862.28
2022-12-12T13:11:15.463Z,100861.84
2022-12-12T13:13:44.777Z,100861.75
2022-12-12T13:16:16.244Z,100864.91
2022-12-12T13:18:45.346Z,100864.41
2022-12-12T13:21:36.756Z,100860.78
2022-12-12T13:24:13.721Z,100859.44
2022-12-12T13:26:57.447Z,100851.19
2022-12-12T13:29:48.210Z,100850.41
2022-12-12T13:32:20.682Z,100845.13
2022-12-12T13:34:51.948Z,100846.06
2022-12-12T13:37:20.690Z,100844.22
2022-12-12T13:39:57.451Z,100853.72
2022-12-12T13:42:23.800Z,100855.34
2022-12-12T13:44:50.268Z,100863.13
2022-12-12T13:47:22.288Z,100862.38
2022-12-12T13:50:06.807Z,100858.00
2022-12-12T13:52:37.751Z,100864.31
2022-12-12T13:55:13.172Z,100866.16
2022-12-12T13:58:05.692Z,100865.53
2022-12-12T14:00:33.919Z,100858.63
2022-12-12T14:03:05.091Z,100861.56
2022-12-12T14:05:35.916Z,100860.59
2022-12-12T14:08:25.579Z,100864.13
2022-12-12T14:10:59.242Z,100863.50
2022-12-12T14:13:30.879Z,100854.59
2022-12-12T14:15:57.191Z,100852.22
2022-12-12T14:18:30.556Z,100862.84
2022-12-12T14:21:36.316Z,100863.81
2022-12-12T14:24:33.309Z,100870.78
2022-12-12T14:27:01.202Z,100864.56
2022-12-12T14:29:29.955Z,100867.97
2022-12-12T14:31:56.210Z,100863.88
2022-12-12T14:34:57.158Z,100874.41
2022-12-12T14:37:51.181Z,100867.59
2022-12-12T14:40:22.744Z,100866.91
2022-12-12T14:43:20.356Z,100864.63
2022-12-12T14:45:50.973Z,100865.44
2022-12-12T14:48:21.919Z,100869.91
2022-12-12T14:51:10.441Z,100876.16
2022-12-12T14:53:36.716Z,100862.94
2022-12-12T14:56:08.980Z,100871.00
2022-12-12T14:58:39.835Z,100873.81
2022-12-12T15:01:06.704Z,100875.72
2022-12-12T15:03:44.632Z,100877.63
2022-12-12T15:06:26.714Z,100875.94
2022-12-12T15:08:54.198Z,100875.31
2022-12-12T15:11:23.936Z,100879.06
2022-12-12T15:13:51.746Z,100878.50
2022-12-12T15:16:20.529Z,100877.81
2022-12-12T15:18:50.691Z,100886.97
2022-12-12T15:21:19.514Z,100882.84
2022-12-12T15:23:46.416Z,100881.28
2022-12-12T15:26:23.989Z,100890.28
2022-12-12T15:28:50.425Z,100883.44
2022-12-12T15:31:19.177Z,100889.81
2022-12-12T15:33:47.432Z,100891.66
2022-12-12T15:36:28.316Z,100898.03
2022-12-12T15:39:15.509Z,100911.53
2022-12-12T15:41:44.074Z,100902.94
2022-12-12T15:44:21.536Z,100906.59
2022-12-12T15:46:50.270Z,100914.66
2022-12-12T15:49:37.587Z,100914.97
2022-12-12T15:52:19.239Z,100916.19
2022-12-12T15:54:52.119Z,100909.31
2022-12-12T15:57:22.179Z,100921.03
2022-12-12T16:00:05.148Z,100920.22
2022-12-12T16:02:33.710Z,100915.94
2022-12-12T16:05:18.119Z,100923.06
2022-12-12T16:07:44.805Z,100922.47
2022-12-12T16:10:11.764Z,100920.97
2022-12-12T16:13:15.382Z,100925.56
2022-12-12T16:15:41.731Z,100925.88
2022-12-12T16:18:14.378Z,100917.16
2022-12-12T16:20:47.919Z,100930.44
2022-12-12T16:23:33.010Z,100920.91
2022-12-12T16:25:59.857Z,100928.84
2022-12-12T16:28:28.556Z,100924.53
2022-12-12T16:31:02.476Z,100922.84
2022-12-12T16:33:37.483Z,100929.94
2022-12-12T16:36:10.191Z,100926.41
2022-12-12T16:38:37.439Z,100926.75
2022-12-12T16:41:07.792Z,100930.41
2022-12-12T16:43:34.809Z,100935.97
2022-12-12T16:46:01.272Z,100932.66
2022-12-12T16:48:36.226Z,100932.75
2022-12-12T16:51:06.075Z,100932.75
2022-12-12T16:53:34.706Z,100933.63
2022-12-12T16:56:01.776Z,100933.72
2022-12-12T16:58:28.397Z,100936.38
2022-12-12T17:00:55.145Z,100936.34
2022-12-12T17:03:26.204Z,100932.84
2022-12-12T17:05:53.017Z,100931.16
2022-12-12T17:08:19.797Z,100933.81
2022-12-12T17:10:48.083Z,100939.94
2022-12-12T17:13:19.885Z,100938.25
2022-12-12T17:15:46.436Z,100936.50
2022-12-12T17:18:13.207Z,100946.22
2022-12-12T17:20:39.988Z,100944.47
2022-12-12T17:25:54.712Z,100931.41
2022-12-12T17:28:25.678Z,100930.63
2022-12-12T17:30:52.128Z,100932.50
2022-12-12T17:33:18.551Z,100928.25
2022-12-12T17:35:45.512Z,100932.69
2022-12-12T17:38:16.202Z,100931.97
2022-12-12T17:40:43.582Z,100928.50
2022-12-12T17:43:10.006Z,100926.03
2022-12-12T17:45:36.389Z,100921.72
2022-12-12T17:48:04.562Z,100928.91
2022-12-12T17:50:31.110Z,100938.56
2022-12-12T17:52:57.643Z,100937.91
2022-12-12T17:55:54.531Z,100937.84
2022-12-12T17:58:10.543Z,100949.19
2022-12-12T18:00:37.688Z,100944.84
2022-12-12T18:03:04.458Z,100947.53
2022-12-12T18:05:31.879Z,100936.97
2022-12-12T18:07:59.315Z,100937.00
2022-12-12T18:10:25.774Z,100944.13
2022-12-12T18:12:52.323Z,100940.81
2022-12-12T18:15:19.121Z,100940.75
2022-12-12T18:17:45.512Z,100941.59
2022-12-12T18:20:12.444Z,100937.28
2022-12-12T18:22:39.235Z,100923.25
2022-12-12T18:25:06.164Z,100934.66
2022-12-12T18:27:32.483Z,100928.56
2022-12-12T18:29:58.867Z,100925.91
2022-12-12T18:32:25.200Z,100925.78
2022-12-12T18:34:51.514Z,100917.09
2022-12-12T18:37:17.935Z,100925.00
2022-12-12T18:39:44.226Z,100923.25
2022-12-12T18:42:11.860Z,100919.81
2022-12-12T18:44:38.179Z,100922.47
2022-12-12T18:47:04.572Z,100928.66
2022-12-12T18:49:31.274Z,100927.81
2022-12-12T18:51:57.705Z,100929.59
2022-12-12T18:54:24.022Z,100927.03
2022-12-12T18:56:50.382Z,100921.81
2022-12-12T18:59:17.217Z,100920.16
2022-12-12T19:01:43.955Z,100917.50
2022-12-12T19:04:13.442Z,100928.03
2022-12-12T19:06:43.045Z,100921.88
2022-12-12T19:09:17.991Z,100920.16
2022-12-12T19:11:44.827Z,100929.81
2022-12-12T19:14:13.082Z,100920.31
2022-12-12T19:16:42.779Z,100931.69
2022-12-12T19:19:09.577Z,100922.13
2022-12-12T19:21:38.269Z,100923.91
2022-12-12T19:24:08.870Z,100923.06
2022-12-12T19:26:35.340Z,100917.84
2022-12-12T19:29:05.555Z,100924.03
2022-12-12T19:31:36.005Z,100923.19
2022-12-12T19:34:05.032Z,100926.72
2022-12-12T19:36:32.404Z,100927.63
2022-12-12T19:39:03.376Z,100923.34
2022-12-12T19:41:29.767Z,100924.22
2022-12-12T19:43:58.629Z,100923.38
2022-12-12T19:46:26.939Z,100918.13
2022-12-12T19:48:58.960Z,100918.19
2022-12-12T19:51:27.121Z,100912.88
2022-12-12T19:53:56.535Z,100921.66
2022-12-12T19:56:26.338Z,100917.44
2022-12-12T19:58:53.175Z,100924.44
2022-12-12T20:01:22.247Z,100924.47
2022-12-12T20:03:51.108Z,100925.34
2022-12-12T20:06:18.276Z,100927.13
2022-12-12T20:08:45.187Z,100920.06
2022-12-12T20:11:14.186Z,100920.06
2022-12-12T20:13:40.863Z,100917.56
2022-12-12T20:16:12.678Z,100922.78
2022-12-12T20:18:41.183Z,100917.56
2022-12-12T20:21:09.398Z,100931.63
2022-12-12T20:23:41.102Z,100921.16
2022-12-12T20:26:17.237Z,100927.28
2022-12-12T20:28:44.199Z,100934.28
2022-12-12T20:31:16.292Z,100935.19
2022-12-12T20:33:43.292Z,100925.69
2022-12-12T20:36:12.167Z,100931.81
2022-12-12T20:38:39.500Z,100925.75
2022-12-12T20:41:24.490Z,100926.66
2022-12-12T20:43:53.773Z,100923.22
2022-12-12T20:46:32.491Z,100926.69
2022-12-12T20:49:00.783Z,100929.31
2022-12-12T20:51:54.201Z,100921.50
2022-12-12T20:54:17.136Z,100934.59
2022-12-12T20:56:46.305Z,100937.25
2022-12-12T20:59:14.177Z,100942.53
2022-12-12T21:01:40.523Z,100945.19
2022-12-12T21:04:10.542Z,100945.22
2022-12-12T21:06:48.001Z,100943.50
2022-12-12T21:09:22.801Z,100947.91
2022-12-12T21:11:50.724Z,100952.28
2022-12-12T21:14:17.084Z,100949.66
2022-12-12T21:16:43.416Z,100951.44
2022-12-12T21:19:12.225Z,100954.00
2022-12-12T21:21:40.236Z,100961.94
2022-12-12T21:24:07.422Z,100952.34
2022-12-12T21:26:34.265Z,100955.84
2022-12-12T21:29:04.768Z,100954.94
2022-12-12T21:31:35.216Z,100945.34
2022-12-12T21:34:01.716Z,100936.59
2022-12-12T21:36:29.416Z,100943.56
2022-12-12T21:38:57.840Z,100948.75
2022-12-12T21:41:24.755Z,100948.81
2022-12-12T21:43:52.141Z,100955.84
2022-12-12T21:46:21.521Z,100956.78
2022-12-12T21:49:08.448Z,100952.44
2022-12-12T21:51:35.682Z,100946.38
2022-12-12T21:54:03.215Z,100942.06
2022-12-12T21:56:30.111Z,100947.31
2022-12-12T21:58:57.148Z,100945.59
2022-12-12T22:01:24.146Z,100948.19
2022-12-12T22:03:50.538Z,100944.69
2022-12-12T22:06:22.398Z,100942.09
2022-12-12T22:08:49.823Z,100939.50
2022-12-12T22:11:23.841Z,100953.47
2022-12-12T22:14:05.826Z,100950.03
2022-12-12T22:16:33.481Z,100940.47
2022-12-12T22:19:06.367Z,100947.41
2022-12-12T22:21:33.599Z,100939.56
2022-12-12T22:24:00.359Z,100949.16
2022-12-12T22:26:38.522Z,100947.50
2022-12-12T22:29:13.730Z,100942.28
2022-12-12T22:31:41.220Z,100946.69
2022-12-12T22:34:15.405Z,100944.94
2022-12-12T22:36:42.459Z,100948.44
2022-12-12T22:39:13.964Z,100952.78
2022-12-12T22:41:40.307Z,100951.06
2022-12-12T22:44:07.144Z,100955.44
2022-12-12T22:46:36.939Z,100947.59
2022-12-12T22:49:10.464Z,100942.41
2022-12-12T22:51:36.779Z,100945.03
2022-12-12T22:54:05.134Z,100945.03
2022-12-12T22:56:34.046Z,100951.13
2022-12-12T22:59:00.380Z,100952.88
2022-12-12T23:01:27.684Z,100952.91
2022-12-12T23:03:54.380Z,100952.06
2022-12-12T23:06:24.812Z,100945.94
2022-12-12T23:08:53.637Z,100945.97
2022-12-12T23:11:22.391Z,100939.81
2022-12-12T23:13:48.946Z,100940.75
2022-12-12T23:16:17.973Z,100946.00
2022-12-12T23:18:46.115Z,100941.66
2022-12-12T23:21:17.000Z,100936.47
2022-12-12T23:23:44.972Z,100941.72
2022-12-12T23:26:17.367Z,100933.84
2022-12-12T23:28:44.635Z,100936.47
2022-12-12T23:31:13.336Z,100926.94
2022-12-12T23:33:40.091Z,100928.63
2022-12-12T23:36:11.870Z,100928.66
2022-12-12T23:38:38.291Z,100922.56
2022-12-12T23:41:06.747Z,100926.06
2022-12-12T23:43:33.603Z,100926.06
2022-12-12T23:46:05.628Z,100923.47
2022-12-12T23:48:32.763Z,100920.88
2022-12-12T23:50:59.466Z,100915.66
2022-12-12T23:53:27.211Z,100917.41
2022-12-12T23:55:53.695Z,100915.69
2022-12-12T23:58:20.009Z,100911.34
